Time;durP1;ratioP1;P1;durP2;ratioP2;P2;SDS_P1;SDS_P2;PMS_P1;PMS_P2;Temp;Humidity;BMP_temperature;BMP_pressure;BME280_temperature;BME280_humidity;BME280_pressure;Samples;Min_cycle;Max_cycle;Signal;HPM_P1;HPM_P2
2023/09/22 00:02:25;;;;;;;0.10;0.10;;;14.80;99.90;;;;;;5090252;28;20040;-80
2023/09/22 00:04:51;;;;;;;0.20;0.20;;;14.70;99.90;;;;;;5078937;28;20045;-80
2023/09/22 00:07:17;;;;;;;0.20;0.20;;;14.70;99.90;;;;;;5088115;28;20479;-80
2023/09/22 00:09:43;;;;;;;0.10;0.10;;;14.80;99.90;;;;;;5089610;28;20054;-80
2023/09/22 00:12:09;;;;;;;0.10;0.10;;;14.80;99.90;;;;;;5089697;28;20044;-79
2023/09/22 00:14:38;;;;;;;0.10;0.10;;;14.70;99.90;;;;;;5088773;28;20139;-80
2023/09/22 00:17:03;;;;;;;0.10;0.10;;;14.80;99.90;;;;;;5088812;28;20055;-80
2023/09/22 00:19:29;;;;;;;0.10;0.10;;;14.80;99.90;;;;;;5088584;28;20044;-79
2023/09/22 00:21:55;;;;;;;0.10;0.10;;;14.80;99.90;;;;;;5090070;28;20044;-80
2023/09/22 00:24:22;;;;;;;0.10;0.10;;;14.80;99.90;;;;;;5082393;28;20036;-80
2023/09/22 00:26:48;;;;;;;0.10;0.10;;;14.80;99.90;;;;;;5088055;28;20044;-81
2023/09/22 00:29:13;;;;;;;0.10;0.10;;;14.80;99.90;;;;;;5089988;28;20564;-80
2023/09/22 00:31:39;;;;;;;0.10;0.10;;;14.80;99.90;;;;;;5087314;28;20040;-80
2023/09/22 00:34:05;;;;;;;0.10;0.10;;;14.70;99.90;;;;;;5090727;28;20036;-80
2023/09/22 00:36:33;;;;;;;0.10;0.10;;;14.80;99.90;;;;;;5089987;28;20062;-79
2023/09/22 00:38:59;;;;;;;0.20;0.20;;;14.70;99.90;;;;;;5079438;28;20056;-80
2023/09/22 00:41:25;;;;;;;0.10;0.10;;;14.80;99.90;;;;;;5084769;28;21300;-80
2023/09/22 00:43:50;;;;;;;0.10;0.10;;;14.80;99.90;;;;;;5089379;28;20514;-80
2023/09/22 00:46:23;;;;;;;0.10;0.10;;;14.70;99.90;;;;;;5087532;28;20483;-80
2023/09/22 00:48:51;;;;;;;0.10;0.10;;;14.80;99.90;;;;;;5083007;28;20059;-80
2023/09/22 00:51:19;;;;;;;0.10;0.10;;;14.80;99.90;;;;;;5090175;28;20038;-80
2023/09/22 00:53:47;;;;;;;0.20;0.20;;;14.70;99.90;;;;;;5087872;28;20054;-79
2023/09/22 00:56:15;;;;;;;0.10;0.10;;;14.70;99.90;;;;;;5091318;28;20476;-80
2023/09/22 00:58:41;;;;;;;0.10;0.10;;;14.70;99.90;;;;;;5087258;28;20040;-80
2023/09/22 01:01:07;;;;;;;0.10;0.10;;;14.80;99.90;;;;;;5087617;28;20062;-80
2023/09/22 01:03:32;;;;;;;0.15;0.15;;;14.70;99.90;;;;;;5088122;28;20044;-80
2023/09/22 01:05:58;;;;;;;0.10;0.10;;;14.70;99.90;;;;;;5072840;28;20040;-80
2023/09/22 01:08:24;;;;;;;0.10;0.10;;;14.70;99.90;;;;;;5089623;28;20044;-79
2023/09/22 01:10:49;;;;;;;0.13;0.13;;;14.70;99.90;;;;;;5081134;28;20048;-81
2023/09/22 01:13:15;;;;;;;0.10;0.10;;;14.70;99.90;;;;;;5080194;28;20087;-80
2023/09/22 01:15:42;;;;;;;0.10;0.10;;;14.80;99.90;;;;;;5085953;28;20131;-80
2023/09/22 01:18:10;;;;;;;0.10;0.10;;;14.70;99.90;;;;;;5076201;28;20608;-80
2023/09/22 01:20:42;;;;;;;0.10;0.10;;;14.70;99.90;;;;;;5088453;28;20040;-80
2023/09/22 01:23:08;;;;;;;0.10;0.10;;;14.70;99.90;;;;;;5089274;28;20054;-80
2023/09/22 01:25:33;;;;;;;0.20;0.20;;;14.70;99.90;;;;;;5086941;28;20040;-80
2023/09/22 01:27:59;;;;;;;0.10;0.10;;;14.60;99.90;;;;;;5088967;28;20499;-80
2023/09/22 01:30:25;;;;;;;0.10;0.10;;;14.70;99.90;;;;;;5082741;28;20040;-80
2023/09/22 01:32:50;;;;;;;0.10;0.10;;;14.70;99.90;;;;;;5089717;28;20043;-80
2023/09/22 01:35:16;;;;;;;0.20;0.20;;;14.70;99.90;;;;;;5087878;28;20373;-80
2023/09/22 01:37:56;;;;;;;0.10;0.10;;;14.60;99.90;;;;;;5084219;28;20407;-80
2023/09/22 01:40:21;;;;;;;0.10;0.10;;;14.60;99.90;;;;;;5082308;28;20472;-80
2023/09/22 01:42:47;;;;;;;0.10;0.10;;;14.60;99.90;;;;;;5087439;28;20043;-80
2023/09/22 01:45:13;;;;;;;0.10;0.10;;;14.60;99.90;;;;;;5085766;28;20086;-79
2023/09/22 01:47:40;;;;;;;0.10;0.10;;;14.60;99.90;;;;;;5082030;28;20048;-80
2023/09/22 01:50:07;;;;;;;0.10;0.10;;;14.60;99.90;;;;;;5083114;28;20047;-80
2023/09/22 01:52:33;;;;;;;0.10;0.10;;;14.60;99.90;;;;;;5085472;28;20387;-80
2023/09/22 01:54:59;;;;;;;0.17;0.17;;;14.50;99.90;;;;;;5083308;28;20047;-80
2023/09/22 01:57:25;;;;;;;0.10;0.10;;;14.50;99.90;;;;;;5088934;28;20051;-80
2023/09/22 01:59:50;;;;;;;0.10;0.10;;;14.50;99.90;;;;;;5086517;28;20177;-80
2023/09/22 02:02:16;;;;;;;0.10;0.10;;;14.50;99.90;;;;;;5086925;28;20102;-80
2023/09/22 02:04:42;;;;;;;0.10;0.10;;;14.50;99.90;;;;;;5088488;28;20409;-81
2023/09/22 02:07:07;;;;;;;0.20;0.20;;;14.50;99.90;;;;;;5088503;28;20502;-80
2023/09/22 02:09:34;;;;;;;0.20;0.20;;;14.50;99.90;;;;;;5081127;28;20122;-80
2023/09/22 02:11:59;;;;;;;0.10;0.10;;;14.50;99.90;;;;;;5088378;28;20040;-80
2023/09/22 02:14:25;;;;;;;0.10;0.10;;;14.50;99.90;;;;;;5085387;28;20060;-80
2023/09/22 02:16:51;;;;;;;0.10;0.10;;;14.40;99.90;;;;;;5086612;28;20486;-80
2023/09/22 02:19:16;;;;;;;0.10;0.10;;;14.50;99.90;;;;;;5087700;28;20055;-80
2023/09/22 02:21:42;;;;;;;0.10;0.10;;;14.40;99.90;;;;;;5079434;28;20040;-80
2023/09/22 02:24:08;;;;;;;0.10;0.10;;;14.40;99.90;;;;;;5087631;28;20040;-80
2023/09/22 02:26:34;;;;;;;0.10;0.10;;;14.40;99.90;;;;;;5077626;28;20055;-80
2023/09/22 02:28:59;;;;;;;0.10;0.10;;;14.40;99.90;;;;;;5088373;28;20047;-81
2023/09/22 02:31:26;;;;;;;0.10;0.10;;;14.40;99.90;;;;;;5085788;28;20047;-80
2023/09/22 02:33:52;;;;;;;0.10;0.10;;;14.40;99.90;;;;;;5088237;28;20047;-80
2023/09/22 02:36:18;;;;;;;0.10;0.10;;;14.40;99.90;;;;;;5087055;28;20036;-80
2023/09/22 02:38:44;;;;;;;0.20;0.20;;;14.40;99.90;;;;;;5087777;28;20047;-80
2023/09/22 02:41:11;;;;;;;0.10;0.10;;;14.40;99.90;;;;;;5084270;28;20071;-80
2023/09/22 02:43:38;;;;;;;0.10;0.10;;;14.50;99.90;;;;;;5084767;28;20044;-80
2023/09/22 02:46:04;;;;;;;0.10;0.10;;;14.50;99.90;;;;;;5085704;28;20036;-80
2023/09/22 02:48:29;;;;;;;0.10;0.10;;;14.40;99.90;;;;;;5084377;28;20044;-80
2023/09/22 02:50:55;;;;;;;0.10;0.10;;;14.50;99.90;;;;;;5083113;28;20098;-80
2023/09/22 02:53:21;;;;;;;0.10;0.10;;;14.50;99.90;;;;;;5087161;28;20561;-80
2023/09/22 02:55:47;;;;;;;0.10;0.10;;;14.50;99.90;;;;;;5085525;28;20043;-79
2023/09/22 02:58:12;;;;;;;0.20;0.20;;;14.50;99.90;;;;;;5085754;28;20479;-81
2023/09/22 03:00:43;;;;;;;0.22;0.22;;;14.50;99.90;;;;;;5087773;28;20976;-80
2023/09/22 03:03:10;;;;;;;0.20;0.20;;;14.50;99.90;;;;;;5087062;28;20305;-81
2023/09/22 03:05:36;;;;;;;0.20;0.20;;;14.50;99.90;;;;;;5090498;28;20063;-80
2023/09/22 03:08:04;;;;;;;0.20;0.20;;;14.50;99.90;;;;;;5089034;28;20036;-80
2023/09/22 03:10:31;;;;;;;0.10;0.10;;;14.60;99.90;;;;;;5107813;28;20048;-80
2023/09/22 03:12:56;;;;;;;0.10;0.10;;;14.60;99.90;;;;;;5087684;28;20130;-80
2023/09/22 03:15:23;;;;;;;0.20;0.20;;;14.60;99.90;;;;;;5090881;28;20048;-80
2023/09/22 03:17:48;;;;;;;0.20;0.20;;;14.60;99.90;;;;;;5088558;28;20043;-80
2023/09/22 03:20:16;;;;;;;0.20;0.20;;;14.60;99.90;;;;;;5084257;28;20103;-80
2023/09/22 03:22:42;;;;;;;0.10;0.10;;;14.60;99.90;;;;;;5090555;28;20119;-81
2023/09/22 03:25:11;;;;;;;0.10;0.10;;;14.60;99.90;;;;;;5089813;28;20645;-80
2023/09/22 03:27:37;;;;;;;0.10;0.10;;;14.60;99.90;;;;;;5089728;28;20044;-80
2023/09/22 03:30:05;;;;;;;0.10;0.10;;;14.60;99.90;;;;;;5085670;28;20071;-80
2023/09/22 03:32:32;;;;;;;0.10;0.10;;;14.60;99.90;;;;;;5090710;28;20119;-80
2023/09/22 03:34:58;;;;;;;0.10;0.10;;;14.60;99.90;;;;;;5090739;28;20036;-80
2023/09/22 03:37:29;;;;;;;0.10;0.10;;;14.60;99.90;;;;;;5079873;28;20040;-80
2023/09/22 03:39:58;;;;;;;0.10;0.10;;;14.60;99.90;;;;;;5087582;28;20051;-80
2023/09/22 03:42:25;;;;;;;0.20;0.20;;;14.60;99.90;;;;;;5086352;28;20054;-80
2023/09/22 03:44:51;;;;;;;0.10;0.10;;;14.60;99.90;;;;;;5088886;28;20048;-80
2023/09/22 03:47:16;;;;;;;0.10;0.10;;;14.70;99.90;;;;;;5090973;28;20051;-80
2023/09/22 03:49:42;;;;;;;0.10;0.10;;;14.60;99.90;;;;;;5083855;28;20509;-80
2023/09/22 03:52:08;;;;;;;0.10;0.10;;;14.60;99.90;;;;;;5088035;28;20142;-80
2023/09/22 03:54:34;;;;;;;0.10;0.10;;;14.60;99.90;;;;;;5088812;28;20097;-80
2023/09/22 03:57:00;;;;;;;0.20;0.20;;;14.60;99.90;;;;;;5088214;28;20067;-80
2023/09/22 03:59:26;;;;;;;0.10;0.10;;;14.50;99.90;;;;;;5088808;28;20058;-79
2023/09/22 04:01:52;;;;;;;0.13;0.13;;;14.50;99.90;;;;;;5087986;28;20044;-80
2023/09/22 04:04:17;;;;;;;0.20;0.20;;;14.50;99.90;;;;;;5091145;28;20376;-80
2023/09/22 04:06:44;;;;;;;0.13;0.13;;;14.50;99.90;;;;;;5082889;28;20071;-80
2023/09/22 04:09:10;;;;;;;0.20;0.20;;;14.50;99.90;;;;;;5090047;28;20043;-79
2023/09/22 04:11:36;;;;;;;0.20;0.20;;;14.60;99.90;;;;;;5088204;28;20383;-80
2023/09/22 04:14:02;;;;;;;0.10;0.10;;;14.50;99.90;;;;;;5090857;28;20044;-79
2023/09/22 04:16:29;;;;;;;0.10;0.10;;;14.50;99.90;;;;;;5089311;28;20048;-79
2023/09/22 04:18:55;;;;;;;0.20;0.20;;;14.50;99.90;;;;;;5089620;28;20397;-79
2023/09/22 04:21:22;;;;;;;0.10;0.10;;;14.50;99.90;;;;;;5080773;28;20044;-80
2023/09/22 04:23:57;;;;;;;0.20;0.20;;;14.50;99.90;;;;;;5090544;28;20059;-80
2023/09/22 04:26:30;;;;;;;0.10;0.10;;;14.40;99.90;;;;;;5089652;28;20062;-80
2023/09/22 04:28:57;;;;;;;0.10;0.10;;;14.40;99.90;;;;;;5089629;28;20123;-80
2023/09/22 04:31:28;;;;;;;0.10;0.10;;;14.30;99.90;;;;;;5077174;28;20043;-79
2023/09/22 04:33:53;;;;;;;0.20;0.20;;;14.40;99.90;;;;;;5090636;28;20483;-79
2023/09/22 04:36:21;;;;;;;0.10;0.10;;;14.30;99.90;;;;;;5081020;28;20097;-80
2023/09/22 04:38:51;;;;;;;0.20;0.20;;;14.30;99.90;;;;;;5075966;28;20090;-79
2023/09/22 04:41:19;;;;;;;0.10;0.10;;;14.30;99.90;;;;;;5088286;28;20058;-79
2023/09/22 04:43:46;;;;;;;0.10;0.10;;;14.30;99.90;;;;;;5086351;28;20052;-78
2023/09/22 04:46:12;;;;;;;0.20;0.20;;;14.30;99.90;;;;;;5086507;28;20039;-79
2023/09/22 04:48:38;;;;;;;0.10;0.10;;;14.30;99.90;;;;;;5090498;28;20044;-79
2023/09/22 04:51:05;;;;;;;0.10;0.10;;;14.30;99.90;;;;;;5082693;28;20067;-79
2023/09/22 04:53:32;;;;;;;0.20;0.20;;;14.30;99.90;;;;;;5084256;28;20093;-81
2023/09/22 04:56:04;;;;;;;0.13;0.13;;;14.30;99.90;;;;;;5089353;28;20155;-79
2023/09/22 04:58:30;;;;;;;0.10;0.10;;;14.30;99.90;;;;;;5081697;28;20094;-79
2023/09/22 05:00:57;;;;;;;0.17;0.17;;;14.30;99.90;;;;;;5085254;28;20044;-79
2023/09/22 05:03:25;;;;;;;0.15;0.15;;;14.30;99.90;;;;;;5086929;28;20145;-80
2023/09/22 05:05:51;;;;;;;0.10;0.10;;;14.30;99.90;;;;;;5080312;28;20040;-79
2023/09/22 05:08:17;;;;;;;0.20;0.20;;;14.20;99.90;;;;;;5089272;28;20399;-80
2023/09/22 05:10:49;;;;;;;0.10;0.10;;;14.20;99.90;;;;;;5087888;28;20135;-80
2023/09/22 05:13:18;;;;;;;0.10;0.10;;;14.20;99.90;;;;;;5087429;28;20475;-80
2023/09/22 05:15:45;;;;;;;0.10;0.10;;;14.20;99.90;;;;;;5087238;28;20044;-80
2023/09/22 05:18:13;;;;;;;0.10;0.10;;;14.20;99.90;;;;;;5083347;28;20439;-80
2023/09/22 05:20:40;;;;;;;0.10;0.10;;;14.20;99.90;;;;;;5088711;28;20101;-79
2023/09/22 05:23:06;;;;;;;0.10;0.10;;;14.20;99.90;;;;;;5088327;28;20040;-80
2023/09/22 05:25:37;;;;;;;0.10;0.10;;;14.20;99.90;;;;;;5084577;28;20052;-80
2023/09/22 05:28:04;;;;;;;0.20;0.20;;;14.20;99.90;;;;;;5087170;28;20055;-79
2023/09/22 05:30:31;;;;;;;0.10;0.10;;;14.10;99.90;;;;;;5088813;28;20081;-80
2023/09/22 05:32:57;;;;;;;0.10;0.10;;;14.10;99.90;;;;;;5086074;28;20055;-79
2023/09/22 05:35:23;;;;;;;0.10;0.10;;;14.10;99.90;;;;;;5074185;28;20120;-79
2023/09/22 05:37:52;;;;;;;0.20;0.20;;;14.10;99.90;;;;;;5079480;28;20068;-79
2023/09/22 05:40:17;;;;;;;0.10;0.10;;;14.10;99.90;;;;;;5086586;28;20384;-79
2023/09/22 05:42:43;;;;;;;0.17;0.17;;;14.10;99.90;;;;;;5088143;28;20047;-79
2023/09/22 05:45:09;;;;;;;0.20;0.20;;;14.00;99.90;;;;;;5088845;28;20581;-79
2023/09/22 05:47:36;;;;;;;0.10;0.10;;;14.00;99.90;;;;;;5086364;28;20376;-79
2023/09/22 05:50:02;;;;;;;0.30;0.20;;;14.00;99.90;;;;;;5089767;28;20047;-80
2023/09/22 05:52:29;;;;;;;0.10;0.10;;;14.00;99.90;;;;;;5073933;28;20044;-79
2023/09/22 05:54:56;;;;;;;0.20;0.20;;;14.00;99.90;;;;;;5084602;28;20050;-79
2023/09/22 05:57:22;;;;;;;0.20;0.20;;;14.00;99.90;;;;;;5087036;28;20036;-80
2023/09/22 05:59:48;;;;;;;0.10;0.10;;;14.00;99.90;;;;;;5084154;28;20040;-80
2023/09/22 06:02:14;;;;;;;0.10;0.10;;;13.90;99.90;;;;;;5084406;28;20036;-79
2023/09/22 06:04:40;;;;;;;0.10;0.10;;;14.00;99.90;;;;;;5087804;28;20118;-79
2023/09/22 06:07:12;;;;;;;0.20;0.20;;;13.90;99.90;;;;;;5083985;28;20035;-79
2023/09/22 06:09:38;;;;;;;0.10;0.10;;;14.00;99.90;;;;;;5086548;28;20044;-79
2023/09/22 06:12:04;;;;;;;0.10;0.10;;;14.00;99.90;;;;;;5086338;28;20085;-80
2023/09/22 06:14:29;;;;;;;0.32;0.22;;;14.00;99.90;;;;;;5080405;28;20048;-80
2023/09/22 06:16:55;;;;;;;0.10;0.10;;;13.90;99.90;;;;;;5085298;28;20048;-80
2023/09/22 06:19:21;;;;;;;0.10;0.10;;;14.00;99.90;;;;;;5079267;28;20115;-80
2023/09/22 06:21:47;;;;;;;0.10;0.10;;;14.00;99.90;;;;;;5087780;28;20046;-79
2023/09/22 06:24:12;;;;;;;0.10;0.10;;;13.90;99.90;;;;;;5086477;28;20760;-79
2023/09/22 06:26:38;;;;;;;0.10;0.10;;;14.00;99.90;;;;;;5086957;28;20044;-79
2023/09/22 06:29:05;;;;;;;0.13;0.13;;;13.90;99.90;;;;;;5085467;28;20077;-81
2023/09/22 06:31:32;;;;;;;0.20;0.20;;;13.90;99.90;;;;;;5086171;28;20126;-80
2023/09/22 06:33:59;;;;;;;0.10;0.10;;;13.90;99.90;;;;;;5068570;28;20129;-81
2023/09/22 06:36:24;;;;;;;0.20;0.20;;;13.90;99.90;;;;;;5080052;28;20643;-80
2023/09/22 06:38:50;;;;;;;0.20;0.20;;;13.90;99.90;;;;;;5087734;28;20209;-80
2023/09/22 06:41:20;;;;;;;0.10;0.10;;;13.90;99.90;;;;;;5087468;28;20037;-81
2023/09/22 06:43:46;;;;;;;0.40;0.40;;;13.90;99.90;;;;;;5086325;28;20048;-81
2023/09/22 06:46:14;;;;;;;0.20;0.20;;;13.90;99.90;;;;;;5084059;28;20051;-80
2023/09/22 06:48:39;;;;;;;0.93;0.22;;;14.00;99.90;;;;;;5087702;28;20177;-80
2023/09/22 06:51:06;;;;;;;0.20;0.20;;;13.90;99.90;;;;;;5086636;28;20111;-80
2023/09/22 06:53:34;;;;;;;0.10;0.10;;;14.00;99.90;;;;;;5077741;28;20055;-81
2023/09/22 06:56:08;;;;;;;0.20;0.20;;;14.00;99.90;;;;;;5077100;28;20040;-80
2023/09/22 06:58:35;;;;;;;0.20;0.20;;;14.00;99.90;;;;;;5077853;28;20060;-80
2023/09/22 07:01:11;;;;;;;0.15;0.15;;;14.00;99.90;;;;;;5081614;28;20036;-79
2023/09/22 07:03:42;;;;;;;0.10;0.10;;;14.00;99.90;;;;;;5084972;28;20614;-81
2023/09/22 07:06:10;;;;;;;0.20;0.20;;;14.00;99.90;;;;;;5087732;28;20044;-80
2023/09/22 07:08:37;;;;;;;0.20;0.20;;;14.10;99.90;;;;;;5085394;28;20096;-80
2023/09/22 07:11:04;;;;;;;0.10;0.10;;;14.10;99.90;;;;;;5084938;28;20048;-80
2023/09/22 07:13:30;;;;;;;0.20;0.20;;;14.10;99.90;;;;;;5083331;28;20075;-80
2023/09/22 07:15:57;;;;;;;0.17;0.17;;;14.10;99.90;;;;;;5086935;28;20499;-80
2023/09/22 07:18:24;;;;;;;0.10;0.10;;;14.10;99.90;;;;;;5080962;28;20044;-80
2023/09/22 07:20:50;;;;;;;0.10;0.10;;;14.10;99.90;;;;;;5083838;28;20332;-80
2023/09/22 07:23:16;;;;;;;0.57;0.57;;;14.20;99.90;;;;;;5087834;28;20498;-80
2023/09/22 07:25:41;;;;;;;0.20;0.20;;;14.20;99.90;;;;;;5089130;28;20052;-81
2023/09/22 07:28:08;;;;;;;0.13;0.13;;;14.20;99.90;;;;;;5089501;28;20423;-81
2023/09/22 07:30:34;;;;;;;0.10;0.10;;;14.20;99.90;;;;;;5087687;28;20148;-80
2023/09/22 07:33:00;;;;;;;0.10;0.10;;;14.20;99.90;;;;;;5085639;28;20078;-79
2023/09/22 07:35:26;;;;;;;0.10;0.10;;;14.20;99.90;;;;;;5087809;28;20131;-80
2023/09/22 07:37:52;;;;;;;0.17;0.17;;;14.20;99.90;;;;;;5087622;28;20135;-80
2023/09/22 07:40:18;;;;;;;0.73;0.30;;;14.20;99.90;;;;;;5103402;28;20243;-80
2023/09/22 07:42:44;;;;;;;0.10;0.10;;;14.20;99.90;;;;;;5079048;28;20135;-80
2023/09/22 07:45:11;;;;;;;0.13;0.13;;;14.20;99.90;;;;;;5066610;28;20055;-81
2023/09/22 07:47:38;;;;;;;0.20;0.20;;;14.10;99.90;;;;;;5083456;28;20117;-79
2023/09/22 07:50:06;;;;;;;0.10;0.10;;;14.10;99.90;;;;;;5088026;28;20043;-79
2023/09/22 07:52:32;;;;;;;0.20;0.20;;;14.10;99.90;;;;;;5085006;28;20040;-79
2023/09/22 07:54:59;;;;;;;0.10;0.10;;;14.00;99.90;;;;;;5083951;28;20063;-80
2023/09/22 07:57:25;;;;;;;0.20;0.20;;;14.10;99.90;;;;;;5090779;28;20036;-80
2023/09/22 07:59:51;;;;;;;0.10;0.10;;;14.00;99.90;;;;;;5076701;28;20054;-79
2023/09/22 08:02:17;;;;;;;0.10;0.10;;;14.10;99.90;;;;;;5078533;28;20032;-80
2023/09/22 08:04:43;;;;;;;0.50;0.50;;;14.10;99.90;;;;;;5071117;28;20044;-80
2023/09/22 08:07:09;;;;;;;0.20;0.20;;;14.10;99.90;;;;;;5072778;28;20098;-80
2023/09/22 08:09:34;;;;;;;0.20;0.20;;;14.10;99.90;;;;;;5092295;28;20399;-80
2023/09/22 08:12:01;;;;;;;0.20;0.20;;;14.10;99.90;;;;;;5080999;28;20040;-80
2023/09/22 08:14:27;;;;;;;0.20;0.20;;;14.10;99.90;;;;;;5090433;28;20052;-80
2023/09/22 08:16:53;;;;;;;0.20;0.20;;;14.10;99.90;;;;;;5091544;28;20055;-81
2023/09/22 08:19:18;;;;;;;0.10;0.10;;;14.10;99.90;;;;;;5082186;28;20144;-80
2023/09/22 08:21:46;;;;;;;0.17;0.17;;;14.10;99.90;;;;;;5085063;28;20072;-80
2023/09/22 08:24:13;;;;;;;0.10;0.10;;;14.10;99.90;;;;;;5092730;28;20040;-82
2023/09/22 08:26:41;;;;;;;0.10;0.10;;;14.10;99.90;;;;;;5089331;28;20133;-81
2023/09/22 08:29:09;;;;;;;0.20;0.20;;;14.10;99.90;;;;;;5090753;28;20157;-80
2023/09/22 08:31:34;;;;;;;0.10;0.10;;;14.20;99.90;;;;;;5086959;28;20043;-80
2023/09/22 08:34:02;;;;;;;0.13;0.13;;;14.10;99.90;;;;;;5089757;28;20043;-81
2023/09/22 08:36:28;;;;;;;0.10;0.10;;;14.10;99.90;;;;;;5090446;28;20399;-81
2023/09/22 08:38:55;;;;;;;0.10;0.10;;;14.10;99.90;;;;;;5100469;28;20056;-81
2023/09/22 08:41:23;;;;;;;0.15;0.15;;;14.20;99.90;;;;;;5092877;28;20089;-81
2023/09/22 08:43:49;;;;;;;0.20;0.20;;;14.20;99.90;;;;;;5094582;28;20049;-81
2023/09/22 08:46:16;;;;;;;0.20;0.20;;;14.30;99.90;;;;;;5090941;28;20389;-81
2023/09/22 08:48:42;;;;;;;0.20;0.20;;;14.30;99.90;;;;;;5094806;28;20055;-81
2023/09/22 08:51:09;;;;;;;0.10;0.10;;;14.30;99.90;;;;;;5089252;28;20039;-81
2023/09/22 08:53:36;;;;;;;0.20;0.20;;;14.30;99.90;;;;;;5095138;28;20051;-80
2023/09/22 08:56:04;;;;;;;0.10;0.10;;;14.40;99.90;;;;;;5084619;28;20101;-80
2023/09/22 08:58:30;;;;;;;0.10;0.10;;;14.40;99.90;;;;;;5090026;28;20248;-81
2023/09/22 09:00:55;;;;;;;0.20;0.20;;;14.40;99.90;;;;;;5090919;28;20598;-81
2023/09/22 09:03:21;;;;;;;0.10;0.10;;;14.50;99.90;;;;;;5088178;28;20445;-80
2023/09/22 09:05:49;;;;;;;0.10;0.10;;;14.50;99.90;;;;;;5100494;28;20048;-80
2023/09/22 09:08:21;;;;;;;0.10;0.10;;;14.50;99.90;;;;;;5093931;28;20071;-80
2023/09/22 09:10:48;;;;;;;0.10;0.10;;;14.50;99.90;;;;;;5092138;28;20054;-81
2023/09/22 09:13:16;;;;;;;0.10;0.10;;;14.50;99.90;;;;;;5085232;28;20225;-80
2023/09/22 09:15:45;;;;;;;0.10;0.10;;;14.50;99.90;;;;;;5086928;28;20408;-80
2023/09/22 09:18:16;;;;;;;0.10;0.10;;;14.60;99.90;;;;;;5092038;28;20051;-81
2023/09/22 09:20:43;;;;;;;0.10;0.10;;;14.70;99.90;;;;;;5088513;28;20056;-80
2023/09/22 09:23:14;;;;;;;0.10;0.10;;;14.70;99.90;;;;;;5088485;28;20036;-80
2023/09/22 09:25:44;;;;;;;0.10;0.10;;;14.80;99.90;;;;;;5085647;28;20056;-80
2023/09/22 09:28:12;;;;;;;0.10;0.10;;;14.80;99.90;;;;;;5095747;28;20048;-81
2023/09/22 09:30:56;;;;;;;0.10;0.10;;;14.80;99.90;;;;;;5076062;28;20074;-80
2023/09/22 09:33:22;;;;;;;0.15;0.15;;;14.90;99.90;;;;;;5091849;28;20055;-80
2023/09/22 09:35:49;;;;;;;0.10;0.10;;;14.90;99.90;;;;;;5086529;28;20044;-79
2023/09/22 09:38:15;;;;;;;0.10;0.10;;;15.00;99.90;;;;;;5092806;28;20381;-81
2023/09/22 09:40:41;;;;;;;0.10;0.10;;;15.20;99.90;;;;;;5092522;28;20391;-80
2023/09/22 09:43:13;;;;;;;0.15;0.15;;;15.30;99.90;;;;;;5089906;28;20044;-80
2023/09/22 09:45:45;;;;;;;0.20;0.20;;;15.40;99.90;;;;;;5090861;28;20062;-80
2023/09/22 09:48:16;;;;;;;0.17;0.17;;;15.50;99.90;;;;;;5093217;28;20040;-81
2023/09/22 09:50:47;;;;;;;0.20;0.20;;;15.70;99.90;;;;;;5085073;28;20040;-81
2023/09/22 09:53:15;;;;;;;;;;;15.80;99.90;;;;;;5094393;28;20046;-80
2023/09/22 09:55:43;;;;;;;0.10;0.10;;;15.90;99.90;;;;;;5087355;28;20323;-80
2023/09/22 09:58:11;;;;;;;0.20;0.20;;;15.90;99.90;;;;;;5091818;28;20036;-79
2023/09/22 10:00:38;;;;;;;0.20;0.20;;;16.10;99.90;;;;;;5086302;28;20490;-79
2023/09/22 10:03:06;;;;;;;0.20;0.20;;;16.20;99.90;;;;;;5090741;28;20394;-80
2023/09/22 10:05:33;;;;;;;0.20;0.20;;;16.30;99.90;;;;;;5088529;28;20048;-78
2023/09/22 10:07:59;;;;;;;0.10;0.10;;;16.50;99.90;;;;;;5093002;28;20514;-80
2023/09/22 10:10:27;;;;;;;0.30;0.30;;;16.50;99.90;;;;;;5100248;28;20092;-80
2023/09/22 10:12:52;;;;;;;0.20;0.20;;;16.70;99.90;;;;;;5072270;28;20044;-79
2023/09/22 10:15:55;;;;;;;0.20;0.20;;;16.80;99.90;;;;;;5081703;28;20066;-80
2023/09/22 10:18:21;;;;;;;0.20;0.20;;;16.80;99.90;;;;;;5087397;28;20044;-80
2023/09/22 10:20:48;;;;;;;0.20;0.20;;;16.70;99.90;;;;;;5068819;28;20182;-80
2023/09/22 10:23:22;;;;;;;0.20;0.20;;;16.70;99.90;;;;;;5081998;28;20125;-79
2023/09/22 10:26:17;;;;;;;0.20;0.20;;;16.70;99.90;;;;;;5090704;28;20390;-79
2023/09/22 10:28:43;;;;;;;0.10;0.10;;;16.80;99.90;;;;;;5086127;28;20067;-78
2023/09/22 10:31:09;;;;;;;0.10;0.10;;;16.80;99.90;;;;;;5085795;28;20049;-78
2023/09/22 10:33:35;;;;;;;0.20;0.20;;;16.80;99.90;;;;;;5092094;28;20115;-78
2023/09/22 10:36:01;;;;;;;0.10;0.10;;;16.90;99.90;;;;;;5092178;28;20750;-79
2023/09/22 10:38:27;;;;;;;0.13;0.13;;;17.00;99.90;;;;;;5095022;28;20427;-78
2023/09/22 10:41:05;;;;;;;0.10;0.10;;;17.00;99.90;;;;;;5088974;28;20130;-78
2023/09/22 10:43:36;;;;;;;0.10;0.10;;;16.90;99.90;;;;;;5085013;28;20041;-78
2023/09/22 10:46:02;;;;;;;0.20;0.20;;;16.90;99.90;;;;;;5086562;28;20044;-78
2023/09/22 10:48:34;;;;;;;0.10;0.10;;;16.90;99.90;;;;;;5089362;28;20071;-79
2023/09/22 10:51:01;;;;;;;0.10;0.10;;;16.90;99.90;;;;;;5093569;28;20048;-77
2023/09/22 10:53:27;;;;;;;0.20;0.20;;;16.90;99.90;;;;;;5090802;28;20050;-78
2023/09/22 10:55:57;;;;;;;0.20;0.20;;;17.10;99.90;;;;;;5089604;28;20114;-78
2023/09/22 10:58:26;;;;;;;0.10;0.10;;;17.20;99.90;;;;;;5091111;28;20066;-78
2023/09/22 11:01:04;;;;;;;0.20;0.20;;;17.30;99.90;;;;;;5092504;28;20044;-78
2023/09/22 11:03:32;;;;;;;0.20;0.20;;;17.30;99.90;;;;;;5087650;28;20047;-77
2023/09/22 11:06:06;;;;;;;0.20;0.20;;;17.40;99.90;;;;;;5087373;28;20048;-78
2023/09/22 11:08:46;;;;;;;0.20;0.20;;;17.40;99.90;;;;;;5085025;28;20042;-79
2023/09/22 11:11:16;;;;;;;0.20;0.20;;;17.50;99.90;;;;;;5092856;28;20524;-78
2023/09/22 11:13:50;;;;;;;0.10;0.10;;;17.40;99.90;;;;;;5090287;28;20297;-78
2023/09/22 11:16:18;;;;;;;0.75;0.32;;;17.40;99.90;;;;;;5088538;28;20116;-78
2023/09/22 11:18:45;;;;;;;0.20;0.20;;;17.30;99.90;;;;;;5090253;28;20048;-77
2023/09/22 11:21:12;;;;;;;0.20;0.20;;;17.20;99.90;;;;;;5088623;28;20404;-78
2023/09/22 11:23:39;;;;;;;0.10;0.10;;;17.10;99.90;;;;;;5088897;28;20047;-77
2023/09/22 11:26:10;;;;;;;0.20;0.20;;;17.20;99.90;;;;;;5089445;28;20040;-78
2023/09/22 11:28:40;;;;;;;;;;;17.20;99.90;;;;;;5093695;28;20036;-79
2023/09/22 11:31:16;;;;;;;0.10;0.10;;;17.30;99.90;;;;;;5090542;28;19970;-78
2023/09/22 11:33:44;;;;;;;0.20;0.20;;;17.30;99.90;;;;;;5104452;28;20083;-79
2023/09/22 11:36:10;;;;;;;0.20;0.20;;;17.50;99.90;;;;;;5096717;28;20056;-78
2023/09/22 11:38:40;;;;;;;0.20;0.20;;;17.50;99.90;;;;;;5092565;28;20050;-77
2023/09/22 11:41:09;;;;;;;0.10;0.10;;;17.60;99.90;;;;;;5094952;28;20035;-78
2023/09/22 11:43:41;;;;;;;0.10;0.10;;;17.70;99.90;;;;;;5081847;28;20051;-77
2023/09/22 11:46:14;;;;;;;0.10;0.10;;;17.70;99.90;;;;;;5093776;28;20060;-75
2023/09/22 11:49:02;;;;;;;0.10;0.10;;;17.60;99.90;;;;;;5094092;28;20059;-75
2023/09/22 11:51:48;;;;;;;0.15;0.15;;;17.60;99.90;;;;;;5093384;28;20550;-75
2023/09/22 11:54:16;;;;;;;0.20;0.20;;;17.50;99.90;;;;;;5093894;28;20051;-76
2023/09/22 11:56:42;;;;;;;0.20;0.20;;;17.50;99.90;;;;;;5095575;28;20369;-75
2023/09/22 11:59:09;;;;;;;0.20;0.20;;;17.50;99.90;;;;;;5090043;28;20067;-75
2023/09/22 12:01:35;;;;;;;0.17;0.17;;;17.70;99.90;;;;;;5088174;28;20471;-76
2023/09/22 12:04:01;;;;;;;0.20;0.20;;;17.60;99.90;;;;;;5093108;28;20074;-75
2023/09/22 12:06:27;;;;;;;0.13;0.13;;;17.60;99.90;;;;;;5090898;28;20073;-76
2023/09/22 12:08:52;;;;;;;0.20;0.20;;;17.50;99.90;;;;;;5084945;28;20040;-75
2023/09/22 12:11:23;;;;;;;0.20;0.20;;;17.40;99.90;;;;;;5090504;28;21606;-75
2023/09/22 12:13:49;;;;;;;0.20;0.20;;;17.40;99.90;;;;;;5089582;28;20044;-75
2023/09/22 12:16:15;;;;;;;0.10;0.10;;;17.40;99.90;;;;;;5088033;28;20055;-76
2023/09/22 12:18:40;;;;;;;0.10;0.10;;;17.30;99.90;;;;;;5094961;28;20044;-76
2023/09/22 12:21:06;;;;;;;0.10;0.10;;;17.30;99.90;;;;;;5093634;28;20118;-75
2023/09/22 12:23:35;;;;;;;0.10;0.10;;;17.20;99.90;;;;;;5093929;28;20048;-76
2023/09/22 12:26:03;;;;;;;0.10;0.10;;;17.20;99.90;;;;;;5094742;28;20048;-75
2023/09/22 12:28:29;;;;;;;0.10;0.10;;;17.10;99.90;;;;;;5095859;28;20044;-76
2023/09/22 12:30:55;;;;;;;0.20;0.20;;;17.00;99.90;;;;;;5092160;28;20047;-76
2023/09/22 12:33:21;;;;;;;0.20;0.20;;;16.90;99.90;;;;;;5094992;28;20467;-76
2023/09/22 12:35:54;;;;;;;0.10;0.10;;;16.90;99.90;;;;;;5093720;28;20718;-75
2023/09/22 12:38:20;;;;;;;0.20;0.20;;;16.90;99.90;;;;;;5086485;28;21614;-75
2023/09/22 12:40:46;;;;;;;0.20;0.20;;;16.90;99.90;;;;;;5089294;28;20486;-76
2023/09/22 12:43:12;;;;;;;0.20;0.20;;;16.90;99.90;;;;;;5087089;28;20036;-75
2023/09/22 12:45:39;;;;;;;0.10;0.10;;;17.00;99.90;;;;;;5085241;28;20411;-76
2023/09/22 12:48:05;;;;;;;0.20;0.20;;;17.10;99.90;;;;;;5090734;28;20058;-75
2023/09/22 12:50:31;;;;;;;0.10;0.10;;;17.10;99.90;;;;;;5082706;28;20052;-75